sensor_id;sensor_type;location;lat;lon;timestamp;pressure;altitude;pressure_sealevel;temperature;humidity
43115;BME280;28727;50.068;14.452;2023-06-22T00:01:24;99478.38;;;21.72;77.44
43115;BME280;28727;50.068;14.452;2023-06-22T00:03:56;99483.38;;;21.68;78.02
43115;BME280;28727;50.068;14.452;2023-06-22T00:06:30;99486.91;;;21.69;78.28
43115;BME280;28727;50.068;14.452;2023-06-22T00:09:01;99493.34;;;21.68;78.59
43115;BME280;28727;50.068;14.452;2023-06-22T00:11:35;99490.91;;;21.66;78.59
43115;BME280;28727;50.068;14.452;2023-06-22T00:14:06;99496.84;;;21.68;78.62
43115;BME280;28727;50.068;14.452;2023-06-22T00:16:39;99491.47;;;21.68;78.25
43115;BME280;28727;50.068;14.452;2023-06-22T00:19:15;99486.25;;;21.61;78.61
43115;BME280;28727;50.068;14.452;2023-06-22T00:21:50;99490.78;;;21.61;78.58
43115;BME280;28727;50.068;14.452;2023-06-22T00:24:32;99491.03;;;21.59;78.63
43115;BME280;28727;50.068;14.452;2023-06-22T00:27:07;99489.38;;;21.58;78.64
43115;BME280;28727;50.068;14.452;2023-06-22T00:29:39;99488.56;;;21.58;78.80
43115;BME280;28727;50.068;14.452;2023-06-22T00:32:11;99497.13;;;21.55;79.24
43115;BME280;28727;50.068;14.452;2023-06-22T00:34:46;99501.69;;;21.54;79.31
43115;BME280;28727;50.068;14.452;2023-06-22T00:37:18;99503.53;;;21.54;79.09
43115;BME280;28727;50.068;14.452;2023-06-22T00:39:49;99500.25;;;21.52;78.96
43115;BME280;28727;50.068;14.452;2023-06-22T00:42:26;99502.94;;;21.52;79.07
43115;BME280;28727;50.068;14.452;2023-06-22T00:44:58;99491.16;;;21.53;79.02
43115;BME280;28727;50.068;14.452;2023-06-22T00:47:31;99483.69;;;21.55;78.94
43115;BME280;28727;50.068;14.452;2023-06-22T00:50:06;99489.88;;;21.55;78.87
43115;BME280;28727;50.068;14.452;2023-06-22T00:52:39;99481.44;;;21.52;78.74
43115;BME280;28727;50.068;14.452;2023-06-22T00:55:15;99498.63;;;21.51;79.13
43115;BME280;28727;50.068;14.452;2023-06-22T00:57:49;99485.44;;;21.49;79.07
43115;BME280;28727;50.068;14.452;2023-06-22T01:00:23;99473.28;;;21.47;79.44
43115;BME280;28727;50.068;14.452;2023-06-22T01:03:01;99478.06;;;21.45;79.59
43115;BME280;28727;50.068;14.452;2023-06-22T01:05:34;99462.19;;;21.43;79.56
43115;BME280;28727;50.068;14.452;2023-06-22T01:08:16;99461.81;;;21.40;79.72
43115;BME280;28727;50.068;14.452;2023-06-22T01:11:08;99469.31;;;21.38;79.99
43115;BME280;28727;50.068;14.452;2023-06-22T01:16:35;99462.22;;;21.32;79.79
43115;BME280;28727;50.068;14.452;2023-06-22T01:21:50;99459.38;;;21.27;80.40
43115;BME280;28727;50.068;14.452;2023-06-22T01:30:02;99462.91;;;21.15;80.93
43115;BME280;28727;50.068;14.452;2023-06-22T01:32:40;99458.56;;;21.14;80.73
43115;BME280;28727;50.068;14.452;2023-06-22T01:35:16;99466.84;;;21.13;80.68
43115;BME280;28727;50.068;14.452;2023-06-22T01:37:51;99455.41;;;21.06;80.94
43115;BME280;28727;50.068;14.452;2023-06-22T01:40:25;99450.25;;;21.04;81.04
43115;BME280;28727;50.068;14.452;2023-06-22T01:43:03;99449.69;;;21.02;81.23
43115;BME280;28727;50.068;14.452;2023-06-22T01:45:40;99454.47;;;21.00;81.65
43115;BME280;28727;50.068;14.452;2023-06-22T01:48:16;99453.88;;;20.98;82.01
43115;BME280;28727;50.068;14.452;2023-06-22T01:50:49;99465.44;;;20.99;81.81
43115;BME280;28727;50.068;14.452;2023-06-22T01:53:23;99465.66;;;20.97;81.81
43115;BME280;28727;50.068;14.452;2023-06-22T01:55:56;99465.94;;;20.96;82.00
43115;BME280;28727;50.068;14.452;2023-06-22T01:58:33;99468.84;;;20.94;82.06
43115;BME280;28727;50.068;14.452;2023-06-22T02:01:12;99468.84;;;20.94;82.08
43115;BME280;28727;50.068;14.452;2023-06-22T02:03:53;99475.72;;;20.90;82.19
43115;BME280;28727;50.068;14.452;2023-06-22T02:06:49;99480.50;;;20.88;82.54
43115;BME280;28727;50.068;14.452;2023-06-22T02:09:24;99482.59;;;20.86;82.33
43115;BME280;28727;50.068;14.452;2023-06-22T02:12:01;99472.69;;;20.87;82.28
43115;BME280;28727;50.068;14.452;2023-06-22T02:14:34;99483.66;;;20.85;82.37
43115;BME280;28727;50.068;14.452;2023-06-22T02:17:08;99486.81;;;20.82;82.45
43115;BME280;28727;50.068;14.452;2023-06-22T02:19:46;99491.56;;;20.80;82.29
43115;BME280;28727;50.068;14.452;2023-06-22T02:22:18;99485.53;;;20.73;82.35
43115;BME280;28727;50.068;14.452;2023-06-22T02:24:50;99485.75;;;20.71;82.53
43115;BME280;28727;50.068;14.452;2023-06-22T02:27:23;99485.16;;;20.69;82.67
43115;BME280;28727;50.068;14.452;2023-06-22T02:29:56;99488.88;;;20.68;82.66
43115;BME280;28727;50.068;14.452;2023-06-22T02:32:31;99485.84;;;20.65;82.96
43115;BME280;28727;50.068;14.452;2023-06-22T02:35:06;99483.38;;;20.63;83.05
43115;BME280;28727;50.068;14.452;2023-06-22T02:37:39;99490.41;;;20.64;83.17
43115;BME280;28727;50.068;14.452;2023-06-22T02:40:16;99487.94;;;20.63;83.16
43115;BME280;28727;50.068;14.452;2023-06-22T02:42:48;99486.53;;;20.60;83.26
43115;BME280;28727;50.068;14.452;2023-06-22T02:45:20;99490.03;;;20.61;83.33
43115;BME280;28727;50.068;14.452;2023-06-22T02:47:52;99484.69;;;20.61;83.28
43115;BME280;28727;50.068;14.452;2023-06-22T02:50:24;99495.63;;;20.59;82.96
43115;BME280;28727;50.068;14.452;2023-06-22T02:52:57;99480.81;;;20.57;83.33
43115;BME280;28727;50.068;14.452;2023-06-22T02:55:32;99484.19;;;20.52;83.11
43115;BME280;28727;50.068;14.452;2023-06-22T02:58:06;99483.84;;;20.49;83.45
43115;BME280;28727;50.068;14.452;2023-06-22T03:00:41;99479.72;;;20.46;83.47
43115;BME280;28727;50.068;14.452;2023-06-22T03:03:14;99474.22;;;20.41;83.79
43115;BME280;28727;50.068;14.452;2023-06-22T03:05:46;99472.59;;;20.40;83.82
43115;BME280;28727;50.068;14.452;2023-06-22T03:08:33;99481.47;;;20.40;83.67
43115;BME280;28727;50.068;14.452;2023-06-22T03:11:07;99479.47;;;20.36;83.90
43115;BME280;28727;50.068;14.452;2023-06-22T03:13:40;99478.06;;;20.33;84.22
43115;BME280;28727;50.068;14.452;2023-06-22T03:16:14;99484.47;;;20.32;83.98
43115;BME280;28727;50.068;14.452;2023-06-22T03:18:49;99479.31;;;20.31;84.17
43115;BME280;28727;50.068;14.452;2023-06-22T03:21:25;99479.31;;;20.31;84.49
43115;BME280;28727;50.068;14.452;2023-06-22T03:23:57;99487.38;;;20.31;83.85
43115;BME280;28727;50.068;14.452;2023-06-22T03:26:29;99492.06;;;20.35;84.02
43115;BME280;28727;50.068;14.452;2023-06-22T03:29:01;99491.25;;;20.35;83.95
43115;BME280;28727;50.068;14.452;2023-06-22T03:31:35;99497.56;;;20.40;83.94
43115;BME280;28727;50.068;14.452;2023-06-22T03:34:09;99493.13;;;20.34;83.51
43115;BME280;28727;50.068;14.452;2023-06-22T03:36:40;99488.72;;;20.22;84.09
43115;BME280;28727;50.068;14.452;2023-06-22T03:39:12;99489.41;;;20.17;84.76
43115;BME280;28727;50.068;14.452;2023-06-22T03:41:45;99498.50;;;20.16;84.76
43115;BME280;28727;50.068;14.452;2023-06-22T03:44:20;99490.66;;;20.15;84.80
43115;BME280;28727;50.068;14.452;2023-06-22T03:46:52;99494.63;;;20.12;85.19
43115;BME280;28727;50.068;14.452;2023-06-22T03:49:24;99493.22;;;20.10;85.39
43115;BME280;28727;50.068;14.452;2023-06-22T03:51:57;99483.56;;;20.09;85.40
43115;BME280;28727;50.068;14.452;2023-06-22T03:54:32;99480.19;;;20.13;85.65
43115;BME280;28727;50.068;14.452;2023-06-22T03:57:04;99483.22;;;20.17;85.10
43115;BME280;28727;50.068;14.452;2023-06-22T03:59:37;99491.25;;;20.17;84.96
43115;BME280;28727;50.068;14.452;2023-06-22T04:02:09;99483.81;;;20.19;85.34
43115;BME280;28727;50.068;14.452;2023-06-22T04:04:41;99479.84;;;20.21;85.15
43115;BME280;28727;50.068;14.452;2023-06-22T04:07:16;99470.88;;;20.27;85.26
43115;BME280;28727;50.068;14.452;2023-06-22T04:09:49;99468.97;;;20.34;84.89
43115;BME280;28727;50.068;14.452;2023-06-22T04:12:21;99469.22;;;20.44;84.49
43115;BME280;28727;50.068;14.452;2023-06-22T04:14:53;99474.38;;;20.58;83.98
43115;BME280;28727;50.068;14.452;2023-06-22T04:17:25;99468.81;;;20.71;83.48
43115;BME280;28727;50.068;14.452;2023-06-22T04:20:00;99470.47;;;20.83;82.37
43115;BME280;28727;50.068;14.452;2023-06-22T04:22:32;99467.78;;;20.95;81.45
43115;BME280;28727;50.068;14.452;2023-06-22T04:25:07;99455.41;;;21.06;80.94
43115;BME280;28727;50.068;14.452;2023-06-22T04:27:45;99457.06;;;21.18;80.49
43115;BME280;28727;50.068;14.452;2023-06-22T04:30:27;99472.03;;;21.26;79.84
43115;BME280;28727;50.068;14.452;2023-06-22T04:32:59;99473.53;;;21.34;79.23
43115;BME280;28727;50.068;14.452;2023-06-22T04:35:34;99462.75;;;21.45;78.76
43115;BME280;28727;50.068;14.452;2023-06-22T04:38:06;99471.84;;;21.56;78.11
43115;BME280;28727;50.068;14.452;2023-06-22T04:40:38;99472.53;;;21.63;77.68
43115;BME280;28727;50.068;14.452;2023-06-22T04:43:09;99476.97;;;21.69;77.25
43115;BME280;28727;50.068;14.452;2023-06-22T04:45:41;99479.06;;;21.79;76.81
43115;BME280;28727;50.068;14.452;2023-06-22T04:48:19;99487.09;;;21.90;76.08
43115;BME280;28727;50.068;14.452;2023-06-22T04:50:50;99490.00;;;22.00;75.48
43115;BME280;28727;50.068;14.452;2023-06-22T04:53:22;99484.81;;;22.11;74.91
43115;BME280;28727;50.068;14.452;2023-06-22T04:55:54;99494.16;;;22.20;74.58
43115;BME280;28727;50.068;14.452;2023-06-22T04:58:26;99490.59;;;22.31;74.20
43115;BME280;28727;50.068;14.452;2023-06-22T05:01:23;99499.66;;;22.41;73.74
43115;BME280;28727;50.068;14.452;2023-06-22T05:03:57;99500.41;;;22.54;73.08
43115;BME280;28727;50.068;14.452;2023-06-22T05:06:30;99505.97;;;22.64;72.66
43115;BME280;28727;50.068;14.452;2023-06-22T05:09:02;99501.59;;;22.74;72.44
43115;BME280;28727;50.068;14.452;2023-06-22T05:11:36;99498.28;;;22.84;71.82
43115;BME280;28727;50.068;14.452;2023-06-22T05:14:09;99506.03;;;22.97;71.18
43115;BME280;28727;50.068;14.452;2023-06-22T05:16:41;99512.88;;;23.05;70.71
43115;BME280;28727;50.068;14.452;2023-06-22T05:19:16;99511.50;;;23.19;70.07
43115;BME280;28727;50.068;14.452;2023-06-22T05:21:48;99509.19;;;23.27;69.63
43115;BME280;28727;50.068;14.452;2023-06-22T05:24:20;99517.16;;;23.39;69.75
43115;BME280;28727;50.068;14.452;2023-06-22T05:26:52;99513.56;;;23.50;69.42
43115;BME280;28727;50.068;14.452;2023-06-22T05:29:26;99519.69;;;23.62;68.93
43115;BME280;28727;50.068;14.452;2023-06-22T05:31:58;99520.38;;;23.75;68.32
43115;BME280;28727;50.068;14.452;2023-06-22T05:34:30;99525.66;;;23.86;67.99
43115;BME280;28727;50.068;14.452;2023-06-22T05:37:02;99522.81;;;23.98;67.26
43115;BME280;28727;50.068;14.452;2023-06-22T05:39:34;99528.84;;;24.05;67.84
43115;BME280;28727;50.068;14.452;2023-06-22T05:42:09;99528.72;;;24.17;67.48
43115;BME280;28727;50.068;14.452;2023-06-22T05:44:41;99538.91;;;24.31;66.66
43115;BME280;28727;50.068;14.452;2023-06-22T05:47:15;99551.25;;;24.49;66.53
43115;BME280;28727;50.068;14.452;2023-06-22T05:49:47;99550.88;;;24.62;65.65
43115;BME280;28727;50.068;14.452;2023-06-22T05:52:19;99549.81;;;24.68;64.95
43115;BME280;28727;50.068;14.452;2023-06-22T05:54:51;99547.06;;;24.63;64.52
43115;BME280;28727;50.068;14.452;2023-06-22T05:57:24;99553.41;;;24.74;64.00
43115;BME280;28727;50.068;14.452;2023-06-22T05:59:59;99545.38;;;24.84;63.90
43115;BME280;28727;50.068;14.452;2023-06-22T06:02:31;99539.88;;;25.01;63.29
43115;BME280;28727;50.068;14.452;2023-06-22T06:05:03;99534.53;;;25.11;62.93
43115;BME280;28727;50.068;14.452;2023-06-22T06:07:36;99538.69;;;25.23;62.71
43115;BME280;28727;50.068;14.452;2023-06-22T06:10:12;99542.88;;;25.41;61.56
43115;BME280;28727;50.068;14.452;2023-06-22T06:12:44;99553.44;;;25.43;61.56
43115;BME280;28727;50.068;14.452;2023-06-22T06:15:16;99544.72;;;25.36;61.24
43115;BME280;28727;50.068;14.452;2023-06-22T06:17:52;99542.41;;;25.49;61.27
43115;BME280;28727;50.068;14.452;2023-06-22T06:20:25;99544.72;;;25.73;60.96
43115;BME280;28727;50.068;14.452;2023-06-22T06:22:59;99546.41;;;25.89;61.21
43115;BME280;28727;50.068;14.452;2023-06-22T06:25:31;99543.25;;;26.07;60.47
43115;BME280;28727;50.068;14.452;2023-06-22T06:28:28;99541.44;;;26.28;59.16
43115;BME280;28727;50.068;14.452;2023-06-22T06:31:00;99540.13;;;26.35;58.35
43115;BME280;28727;50.068;14.452;2023-06-22T06:33:32;99538.78;;;26.48;58.41
43115;BME280;28727;50.068;14.452;2023-06-22T06:36:04;99535.28;;;26.53;57.57
43115;BME280;28727;50.068;14.452;2023-06-22T06:38:36;99533.66;;;26.57;57.50
43115;BME280;28727;50.068;14.452;2023-06-22T06:41:15;99526.88;;;26.74;57.21
43115;BME280;28727;50.068;14.452;2023-06-22T06:43:53;99524.22;;;26.89;56.53
43115;BME280;28727;50.068;14.452;2023-06-22T06:46:25;99522.31;;;27.05;55.74
43115;BME280;28727;50.068;14.452;2023-06-22T06:48:57;99527.22;;;27.08;55.38
43115;BME280;28727;50.068;14.452;2023-06-22T06:51:29;99525.31;;;27.09;55.82
43115;BME280;28727;50.068;14.452;2023-06-22T06:54:05;99518.50;;;27.16;55.28
43115;BME280;28727;50.068;14.452;2023-06-22T06:56:37;99522.56;;;27.34;54.81
43115;BME280;28727;50.068;14.452;2023-06-22T06:59:09;99508.97;;;27.49;54.21
43115;BME280;28727;50.068;14.452;2023-06-22T07:01:44;99512.72;;;27.74;53.84
43115;BME280;28727;50.068;14.452;2023-06-22T07:04:16;99508.91;;;27.80;53.62
43115;BME280;28727;50.068;14.452;2023-06-22T07:06:49;99502.72;;;27.59;53.74
43115;BME280;28727;50.068;14.452;2023-06-22T07:09:21;99507.59;;;27.47;54.60
43115;BME280;28727;50.068;14.452;2023-06-22T07:11:53;99499.50;;;27.37;55.69
43115;BME280;28727;50.068;14.452;2023-06-22T07:14:25;99498.72;;;27.21;55.27
43115;BME280;28727;50.068;14.452;2023-06-22T07:16:57;99494.06;;;27.37;55.67
43115;BME280;28727;50.068;14.452;2023-06-22T07:19:29;99488.38;;;27.28;55.15
43115;BME280;28727;50.068;14.452;2023-06-22T07:22:03;99489.47;;;27.37;55.46
43115;BME280;28727;50.068;14.452;2023-06-22T07:24:37;99480.69;;;27.70;54.66
43115;BME280;28727;50.068;14.452;2023-06-22T07:27:09;99472.94;;;28.03;53.77
43115;BME280;28727;50.068;14.452;2023-06-22T07:29:43;99471.25;;;28.12;53.40
43115;BME280;28727;50.068;14.452;2023-06-22T07:32:18;99472.91;;;28.13;53.15
43115;BME280;28727;50.068;14.452;2023-06-22T07:34:50;99475.41;;;27.99;52.60
43115;BME280;28727;50.068;14.452;2023-06-22T07:37:21;99468.53;;;28.17;52.79
43115;BME280;28727;50.068;14.452;2023-06-22T07:39:56;99473.56;;;28.39;53.08
43115;BME280;28727;50.068;14.452;2023-06-22T07:42:30;99480.41;;;28.31;51.88
43115;BME280;28727;50.068;14.452;2023-06-22T07:45:06;99469.59;;;28.26;51.73
43115;BME280;28727;50.068;14.452;2023-06-22T07:47:40;99465.22;;;28.25;52.73
43115;BME280;28727;50.068;14.452;2023-06-22T07:50:14;99458.31;;;28.43;52.49
43115;BME280;28727;50.068;14.452;2023-06-22T07:52:46;99450.75;;;28.69;51.89
43115;BME280;28727;50.068;14.452;2023-06-22T07:55:20;99448.00;;;28.79;51.57
43115;BME280;28727;50.068;14.452;2023-06-22T07:57:53;99446.19;;;28.98;50.64
43115;BME280;28727;50.068;14.452;2023-06-22T08:00:28;99451.16;;;28.91;50.56
43115;BME280;28727;50.068;14.452;2023-06-22T08:03:00;99437.22;;;28.64;51.51
43115;BME280;28727;50.068;14.452;2023-06-22T08:05:38;99439.94;;;28.64;52.06
43115;BME280;28727;50.068;14.452;2023-06-22T08:08:10;99433.81;;;28.82;51.47
43115;BME280;28727;50.068;14.452;2023-06-22T08:10:42;99426.41;;;28.87;50.61
43115;BME280;28727;50.068;14.452;2023-06-22T08:13:14;99430.38;;;29.00;50.77
43115;BME280;28727;50.068;14.452;2023-06-22T08:15:46;99428.41;;;29.06;48.94
43115;BME280;28727;50.068;14.452;2023-06-22T08:18:20;99431.25;;;28.96;48.50
43115;BME280;28727;50.068;14.452;2023-06-22T08:20:52;99424.72;;;28.97;48.70
43115;BME280;28727;50.068;14.452;2023-06-22T08:23:24;99422.84;;;28.92;49.59
43115;BME280;28727;50.068;14.452;2023-06-22T08:25:56;99426.41;;;28.87;49.86
43115;BME280;28727;50.068;14.452;2023-06-22T08:28:28;99425.84;;;28.90;49.72
43115;BME280;28727;50.068;14.452;2023-06-22T08:31:00;99418.84;;;28.84;49.38
43115;BME280;28727;50.068;14.452;2023-06-22T08:33:33;99418.59;;;28.81;49.47
43115;BME280;28727;50.068;14.452;2023-06-22T08:36:20;99406.94;;;28.80;49.86
43115;BME280;28727;50.068;14.452;2023-06-22T08:38:52;99401.09;;;28.92;49.54
43115;BME280;28727;50.068;14.452;2023-06-22T08:41:27;99402.09;;;29.01;49.34
43115;BME280;28727;50.068;14.452;2023-06-22T08:43:59;99400.06;;;29.12;49.14
43115;BME280;28727;50.068;14.452;2023-06-22T08:46:31;99398.03;;;29.22;49.62
43115;BME280;28727;50.068;14.452;2023-06-22T08:49:04;99393.66;;;29.50;49.39
43115;BME280;28727;50.068;14.452;2023-06-22T08:51:36;99402.63;;;29.69;47.96
43115;BME280;28727;50.068;14.452;2023-06-22T08:54:08;99401.53;;;29.70;48.37
43115;BME280;28727;50.068;14.452;2023-06-22T08:56:40;99401.31;;;29.91;48.00
43115;BME280;28727;50.068;14.452;2023-06-22T08:59:12;99402.69;;;30.07;47.43
43115;BME280;28727;50.068;14.452;2023-06-22T09:01:45;99404.81;;;30.29;46.86
43115;BME280;28727;50.068;14.452;2023-06-22T09:04:20;99398.69;;;30.37;46.08
43115;BME280;28727;50.068;14.452;2023-06-22T09:06:54;99384.88;;;30.47;46.73
43115;BME280;28727;50.068;14.452;2023-06-22T09:09:26;99390.31;;;30.66;45.84
43115;BME280;28727;50.068;14.452;2023-06-22T09:11:58;99381.75;;;30.72;45.19
43115;BME280;28727;50.068;14.452;2023-06-22T09:14:30;99385.47;;;30.76;44.93
43115;BME280;28727;50.068;14.452;2023-06-22T09:17:04;99378.38;;;31.08;44.49
43115;BME280;28727;50.068;14.452;2023-06-22T09:19:39;99385.59;;;30.99;44.69
43115;BME280;28727;50.068;14.452;2023-06-22T09:22:16;99381.44;;;30.87;44.35
43115;BME280;28727;50.068;14.452;2023-06-22T09:24:51;99371.75;;;30.95;43.60
43115;BME280;28727;50.068;14.452;2023-06-22T09:27:26;99372.38;;;30.92;43.50
43115;BME280;28727;50.068;14.452;2023-06-22T09:29:57;99361.81;;;31.04;44.06
43115;BME280;28727;50.068;14.452;2023-06-22T09:32:30;99367.25;;;31.18;43.04
43115;BME280;28727;50.068;14.452;2023-06-22T09:35:04;99365.34;;;31.18;43.12
43115;BME280;28727;50.068;14.452;2023-06-22T09:37:41;99366.25;;;31.14;43.57
43115;BME280;28727;50.068;14.452;2023-06-22T09:40:13;99353.50;;;31.23;43.76
43115;BME280;28727;50.068;14.452;2023-06-22T09:42:50;99359.53;;;31.47;43.48
43115;BME280;28727;50.068;14.452;2023-06-22T09:45:22;99351.66;;;31.59;42.57
43115;BME280;28727;50.068;14.452;2023-06-22T09:47:53;99360.06;;;31.63;42.18
43115;BME280;28727;50.068;14.452;2023-06-22T09:50:25;99358.50;;;31.70;42.87
43115;BME280;28727;50.068;14.452;2023-06-22T09:52:58;99356.97;;;31.78;42.08
43115;BME280;28727;50.068;14.452;2023-06-22T09:55:29;99357.59;;;31.75;41.59
43115;BME280;28727;50.068;14.452;2023-06-22T09:58:02;99353.00;;;31.84;41.32
43115;BME280;28727;50.068;14.452;2023-06-22T10:00:34;99344.16;;;32.01;41.01
43115;BME280;28727;50.068;14.452;2023-06-22T10:03:06;99348.75;;;31.92;40.51
43115;BME280;28727;50.068;14.452;2023-06-22T10:05:38;99343.34;;;32.00;40.69
43115;BME280;28727;50.068;14.452;2023-06-22T10:08:15;99338.88;;;32.04;40.73
43115;BME280;28727;50.068;14.452;2023-06-22T10:10:47;99335.44;;;31.99;40.77
43115;BME280;28727;50.068;14.452;2023-06-22T10:13:19;99344.69;;;31.89;40.88
43115;BME280;28727;50.068;14.452;2023-06-22T10:15:51;99338.09;;;31.68;41.34
43115;BME280;28727;50.068;14.452;2023-06-22T10:18:23;99345.69;;;31.57;41.72
43115;BME280;28727;50.068;14.452;2023-06-22T10:20:58;99334.97;;;31.61;41.60
43115;BME280;28727;50.068;14.452;2023-06-22T10:23:30;99349.59;;;31.79;41.96
43115;BME280;28727;50.068;14.452;2023-06-22T10:26:02;99343.97;;;31.61;41.56
43115;BME280;28727;50.068;14.452;2023-06-22T10:28:37;99329.31;;;31.44;41.86
43115;BME280;28727;50.068;14.452;2023-06-22T10:31:09;99324.44;;;31.54;42.12
43115;BME280;28727;50.068;14.452;2023-06-22T10:33:41;99341.72;;;31.63;42.58
43115;BME280;28727;50.068;14.452;2023-06-22T10:36:17;99324.38;;;31.82;41.86
43115;BME280;28727;50.068;14.452;2023-06-22T10:38:51;99330.66;;;31.82;41.94
43115;BME280;28727;50.068;14.452;2023-06-22T10:41:25;99332.38;;;31.78;41.99
43115;BME280;28727;50.068;14.452;2023-06-22T10:43:58;99334.50;;;31.81;42.05
43115;BME280;28727;50.068;14.452;2023-06-22T10:46:30;99323.75;;;31.62;42.39
43115;BME280;28727;50.068;14.452;2023-06-22T10:49:02;99329.09;;;31.54;41.98
43115;BME280;28727;50.068;14.452;2023-06-22T10:51:34;99328.72;;;31.33;42.01
43115;BME280;28727;50.068;14.452;2023-06-22T10:54:06;99322.47;;;31.33;42.53
43115;BME280;28727;50.068;14.452;2023-06-22T10:56:40;99323.69;;;31.26;42.35
43115;BME280;28727;50.068;14.452;2023-06-22T10:59:14;99307.75;;;31.42;42.37
43115;BME280;28727;50.068;14.452;2023-06-22T11:01:46;99303.81;;;31.62;42.16
43115;BME280;28727;50.068;14.452;2023-06-22T11:04:18;99300.03;;;31.58;42.33
43115;BME280;28727;50.068;14.452;2023-06-22T11:06:53;99306.72;;;31.52;41.76
43115;BME280;28727;50.068;14.452;2023-06-22T11:09:28;99303.09;;;31.56;42.22
43115;BME280;28727;50.068;14.452;2023-06-22T11:12:06;99294.16;;;31.64;41.79
43115;BME280;28727;50.068;14.452;2023-06-22T11:14:39;99308.16;;;31.49;42.22
43115;BME280;28727;50.068;14.452;2023-06-22T11:17:12;99299.16;;;31.49;42.07
43115;BME280;28727;50.068;14.452;2023-06-22T11:19:45;99303.13;;;31.43;41.87
43115;BME280;28727;50.068;14.452;2023-06-22T11:22:17;99294.13;;;31.42;41.83
43115;BME280;28727;50.068;14.452;2023-06-22T11:24:56;99281.75;;;31.58;41.80
43115;BME280;28727;50.068;14.452;2023-06-22T11:27:30;99291.09;;;31.80;41.42
43115;BME280;28727;50.068;14.452;2023-06-22T11:30:02;99277.44;;;32.02;41.03
43115;BME280;28727;50.068;14.452;2023-06-22T11:32:34;99268.38;;;32.15;41.06
43115;BME280;28727;50.068;14.452;2023-06-22T11:35:06;99269.88;;;32.21;40.77
43115;BME280;28727;50.068;14.452;2023-06-22T11:37:49;99267.88;;;32.13;40.83
43115;BME280;28727;50.068;14.452;2023-06-22T11:40:29;99263.47;;;32.03;41.02
43115;BME280;28727;50.068;14.452;2023-06-22T11:43:02;99250.47;;;32.09;41.23
43115;BME280;28727;50.068;14.452;2023-06-22T11:45:34;99245.59;;;32.06;42.11
43115;BME280;28727;50.068;14.452;2023-06-22T11:48:06;99242.75;;;32.11;40.65
43115;BME280;28727;50.068;14.452;2023-06-22T11:50:38;99242.03;;;32.19;40.91
43115;BME280;28727;50.068;14.452;2023-06-22T11:53:15;99247.72;;;32.09;41.25
43115;BME280;28727;50.068;14.452;2023-06-22T11:55:48;99243.28;;;32.13;40.82
43115;BME280;28727;50.068;14.452;2023-06-22T11:58:20;99256.34;;;32.16;40.43
43115;BME280;28727;50.068;14.452;2023-06-22T12:00:56;99250.25;;;32.05;40.78
43115;BME280;28727;50.068;14.452;2023-06-22T12:03:29;99251.47;;;31.91;40.62
43115;BME280;28727;50.068;14.452;2023-06-22T12:06:03;99249.69;;;31.86;40.38
43115;BME280;28727;50.068;14.452;2023-06-22T12:08:35;99233.16;;;31.69;39.76
43115;BME280;28727;50.068;14.452;2023-06-22T12:11:06;99251.97;;;31.70;40.18
43115;BME280;28727;50.068;14.452;2023-06-22T12:13:40;99240.13;;;31.75;39.39
43115;BME280;28727;50.068;14.452;2023-06-22T12:16:12;99237.31;;;31.89;39.42
43115;BME280;28727;50.068;14.452;2023-06-22T12:18:46;99242.34;;;31.95;38.64
43115;BME280;28727;50.068;14.452;2023-06-22T12:21:19;99235.63;;;32.01;37.72
43115;BME280;28727;50.068;14.452;2023-06-22T12:23:51;99245.00;;;32.09;37.59
43115;BME280;28727;50.068;14.452;2023-06-22T12:26:22;99229.03;;;32.02;37.54
43115;BME280;28727;50.068;14.452;2023-06-22T12:28:54;99230.41;;;31.91;38.54
43115;BME280;28727;50.068;14.452;2023-06-22T12:31:26;99221.59;;;31.94;38.24
43115;BME280;28727;50.068;14.452;2023-06-22T12:34:00;99211.53;;;32.03;38.67
43115;BME280;28727;50.068;14.452;2023-06-22T12:36:32;99205.97;;;32.17;38.79
43115;BME280;28727;50.068;14.452;2023-06-22T12:39:03;99204.72;;;32.23;38.43
43115;BME280;28727;50.068;14.452;2023-06-22T12:41:35;99191.19;;;32.18;38.04
43115;BME280;28727;50.068;14.452;2023-06-22T12:44:07;99205.06;;;32.22;37.91
43115;BME280;28727;50.068;14.452;2023-06-22T12:46:39;99189.56;;;32.17;38.13
43115;BME280;28727;50.068;14.452;2023-06-22T12:49:12;99183.94;;;32.14;38.39
43115;BME280;28727;50.068;14.452;2023-06-22T12:51:44;99191.38;;;32.22;38.16
43115;BME280;28727;50.068;14.452;2023-06-22T12:54:16;99192.06;;;32.27;38.20
43115;BME280;28727;50.068;14.452;2023-06-22T12:56:51;99189.25;;;32.19;38.27
43115;BME280;28727;50.068;14.452;2023-06-22T12:59:24;99176.72;;;32.18;38.66
43115;BME280;28727;50.068;14.452;2023-06-22T13:01:56;99177.81;;;32.17;38.32
43115;BME280;28727;50.068;14.452;2023-06-22T13:04:28;99165.16;;;32.21;37.54
43115;BME280;28727;50.068;14.452;2023-06-22T13:07:00;99164.88;;;32.31;38.35
43115;BME280;28727;50.068;14.452;2023-06-22T13:09:32;99161.03;;;32.40;37.36
43115;BME280;28727;50.068;14.452;2023-06-22T13:12:06;99156.41;;;32.49;37.83
43115;BME280;28727;50.068;14.452;2023-06-22T13:14:40;99157.00;;;32.38;37.81
43115;BME280;28727;50.068;14.452;2023-06-22T13:17:13;99152.66;;;32.37;38.04
43115;BME280;28727;50.068;14.452;2023-06-22T13:19:49;99152.50;;;32.33;37.76
43115;BME280;28727;50.068;14.452;2023-06-22T13:22:32;99151.50;;;32.29;37.97
43115;BME280;28727;50.068;14.452;2023-06-22T13:25:06;99139.59;;;32.25;38.53
43115;BME280;28727;50.068;14.452;2023-06-22T13:27:43;99138.78;;;32.25;38.59
43115;BME280;28727;50.068;14.452;2023-06-22T13:30:15;99139.44;;;32.22;38.70
43115;BME280;28727;50.068;14.452;2023-06-22T13:32:47;99144.56;;;32.23;38.12
43115;BME280;28727;50.068;14.452;2023-06-22T13:35:19;99137.63;;;32.17;38.83